createdAt,value
2018-12-19T00:00:35.706Z,30.95
2018-12-19T00:03:04.002Z,29.20
2018-12-19T00:05:38.964Z,29.12
2018-12-19T00:08:07.214Z,29.15
2018-12-19T00:10:35.531Z,29.90
2018-12-19T00:13:03.839Z,28.00
2018-12-19T00:15:32.733Z,30.10
2018-12-19T00:18:01.130Z,26.97
2018-12-19T00:20:29.531Z,28.42
2018-12-19T00:22:57.935Z,25.92
2018-12-19T00:25:26.245Z,28.32
2018-12-19T00:27:54.534Z,27.90
2018-12-19T00:30:22.873Z,28.85
2018-12-19T00:32:51.135Z,27.70
2018-12-19T00:35:19.462Z,25.57
2018-12-19T00:37:47.853Z,25.95
2018-12-19T00:40:16.178Z,28.98
2018-12-19T00:42:44.491Z,24.92
2018-12-19T00:45:12.830Z,25.68
2018-12-19T00:47:41.110Z,30.02
2018-12-19T00:50:09.812Z,26.12
2018-12-19T00:52:38.121Z,25.20
2018-12-19T00:55:06.525Z,25.05
2018-12-19T00:57:34.888Z,24.02
2018-12-19T01:00:03.680Z,23.90
2018-12-19T01:02:31.983Z,26.82
2018-12-19T01:05:00.470Z,26.17
2018-12-19T01:07:28.806Z,25.02
2018-12-19T01:09:57.181Z,21.77
2018-12-19T01:12:25.514Z,27.40
2018-12-19T01:14:53.999Z,24.52
2018-12-19T01:17:22.357Z,23.47
2018-12-19T01:19:51.636Z,24.90
2018-12-19T01:22:20.377Z,27.87
2018-12-19T01:24:48.727Z,26.17
2018-12-19T01:27:17.722Z,29.82
2018-12-19T01:29:45.996Z,26.85
2018-12-19T01:32:14.289Z,26.77
2018-12-19T01:34:42.549Z,30.32
2018-12-19T01:37:10.965Z,28.27
2018-12-19T01:39:39.265Z,24.87
2018-12-19T01:42:07.766Z,28.42
2018-12-19T01:44:36.175Z,26.07
2018-12-19T01:47:04.474Z,24.47
2018-12-19T01:49:32.745Z,27.58
2018-12-19T01:52:01.026Z,28.23
2018-12-19T01:54:29.395Z,26.15
2018-12-19T01:56:57.698Z,24.85
2018-12-19T01:59:26.126Z,30.43
2018-12-19T02:01:54.510Z,30.50
2018-12-19T02:04:22.823Z,26.27
2018-12-19T02:06:51.130Z,27.55
2018-12-19T02:09:19.415Z,28.55
2018-12-19T02:11:47.748Z,31.05
2018-12-19T02:14:16.020Z,26.68
2018-12-19T02:16:44.291Z,26.97
2018-12-19T02:19:12.609Z,30.25
2018-12-19T02:21:40.887Z,25.35
2018-12-19T02:24:09.364Z,30.08
2018-12-19T02:26:37.631Z,28.07
2018-12-19T02:29:06.110Z,27.77
2018-12-19T02:31:34.393Z,32.28
2018-12-19T02:34:02.963Z,28.60
2018-12-19T02:36:31.526Z,28.60
2018-12-19T02:38:59.840Z,31.95
2018-12-19T02:41:28.292Z,29.00
2018-12-19T02:43:56.693Z,27.50
2018-12-19T02:46:25.003Z,23.90
2018-12-19T02:48:53.316Z,29.60
2018-12-19T02:51:21.558Z,29.37
2018-12-19T02:53:49.823Z,28.40
2018-12-19T02:56:18.188Z,28.77
2018-12-19T02:58:46.720Z,37.15
2018-12-19T03:01:15.140Z,27.65
2018-12-19T03:03:43.443Z,27.55
2018-12-19T03:06:11.935Z,28.77
2018-12-19T03:08:40.265Z,26.87
2018-12-19T03:11:09.228Z,26.10
2018-12-19T03:13:37.581Z,28.27
2018-12-19T03:16:05.919Z,21.05
2018-12-19T03:18:34.327Z,24.52
2018-12-19T03:21:02.707Z,24.50
2018-12-19T03:23:30.998Z,23.65
2018-12-19T03:25:59.263Z,22.40
2018-12-19T03:28:27.747Z,21.25
2018-12-19T03:30:56.177Z,27.20
2018-12-19T03:33:24.996Z,23.92
2018-12-19T03:35:53.363Z,23.62
2018-12-19T03:38:25.290Z,28.80
2018-12-19T03:40:53.623Z,22.55
2018-12-19T03:43:22.082Z,23.75
2018-12-19T03:45:50.366Z,23.50
2018-12-19T03:49:25.824Z,22.13
2018-12-19T03:51:54.433Z,21.93
2018-12-19T03:54:23.155Z,27.70
2018-12-19T03:56:51.965Z,26.50
2018-12-19T03:59:20.243Z,24.75
2018-12-19T04:01:48.680Z,26.17
2018-12-19T04:04:17.122Z,24.87
2018-12-19T04:06:45.381Z,28.60
2018-12-19T04:09:13.736Z,28.00
2018-12-19T04:11:42.076Z,26.80
2018-12-19T04:14:10.369Z,24.77
2018-12-19T04:16:38.694Z,28.17
2018-12-19T04:19:07.028Z,29.80
2018-12-19T04:21:35.338Z,22.52
2018-12-19T04:24:03.657Z,19.75
2018-12-19T04:26:31.924Z,23.80
2018-12-19T04:29:00.222Z,23.98
2018-12-19T04:31:28.624Z,21.77
2018-12-19T04:33:56.961Z,20.68
2018-12-19T04:36:25.320Z,22.10
2018-12-19T04:38:53.666Z,19.57
2018-12-19T04:41:22.069Z,23.85
2018-12-19T04:43:50.444Z,19.30
2018-12-19T04:46:18.774Z,18.07
2018-12-19T04:48:47.011Z,22.82
2018-12-19T04:51:15.429Z,21.55
2018-12-19T04:53:43.697Z,21.17
2018-12-19T04:56:12.104Z,19.20
2018-12-19T04:58:40.566Z,18.62
2018-12-19T05:01:08.870Z,19.15
2018-12-19T05:03:37.241Z,20.45
2018-12-19T05:06:05.728Z,14.87
2018-12-19T05:08:33.991Z,18.27
2018-12-19T05:11:02.860Z,15.38
2018-12-19T05:13:31.206Z,13.10
2018-12-19T05:15:59.574Z,15.00
2018-12-19T05:18:27.960Z,13.90
2018-12-19T05:20:56.562Z,16.55
2018-12-19T05:23:24.852Z,18.05
2018-12-19T05:25:53.115Z,13.65
2018-12-19T05:28:21.595Z,16.32
2018-12-19T05:30:49.913Z,13.00
2018-12-19T05:33:18.206Z,17.92
2018-12-19T05:35:46.830Z,13.35
2018-12-19T05:38:15.332Z,16.50
2018-12-19T05:40:43.641Z,14.80
2018-12-19T05:43:11.978Z,16.87
2018-12-19T05:45:40.252Z,17.17
2018-12-19T05:48:08.725Z,16.48
2018-12-19T05:50:37.632Z,18.17
2018-12-19T05:53:06.179Z,17.42
2018-12-19T05:55:34.653Z,15.25
2018-12-19T05:58:02.933Z,20.30
2018-12-19T06:00:31.323Z,15.78
2018-12-19T06:02:59.644Z,18.70
2018-12-19T06:05:28.030Z,18.98
2018-12-19T06:07:56.486Z,21.60
2018-12-19T06:10:26.342Z,18.52
2018-12-19T06:12:54.866Z,22.98
2018-12-19T06:15:23.423Z,19.20
2018-12-19T06:17:51.699Z,23.25
2018-12-19T06:20:20.120Z,26.20
2018-12-19T06:22:48.565Z,27.90
2018-12-19T06:25:16.954Z,26.90
2018-12-19T06:30:30.528Z,18.60
2018-12-19T06:32:59.020Z,20.72
2018-12-19T06:35:27.366Z,19.50
2018-12-19T06:37:55.677Z,21.17
2018-12-19T06:40:23.964Z,21.87
2018-12-19T06:42:52.347Z,17.67
2018-12-19T06:45:20.704Z,19.92
2018-12-19T06:47:49.063Z,25.15
2018-12-19T06:50:17.408Z,17.73
2018-12-19T06:52:45.727Z,18.90
2018-12-19T06:55:14.044Z,23.22
2018-12-19T06:57:43.556Z,18.15
2018-12-19T07:00:11.870Z,26.50
2018-12-19T07:02:40.854Z,24.35
2018-12-19T07:05:09.305Z,21.55
2018-12-19T07:07:37.662Z,21.85
2018-12-19T07:10:07.021Z,24.43
2018-12-19T07:12:35.310Z,16.67
2018-12-19T07:15:03.696Z,22.82
2018-12-19T07:17:32.170Z,24.47
2018-12-19T07:20:00.492Z,23.45
2018-12-19T07:22:28.833Z,19.82
2018-12-19T07:24:57.134Z,24.32
2018-12-19T07:27:25.430Z,22.52
2018-12-19T07:29:53.852Z,30.32
2018-12-19T07:32:22.202Z,20.02
2018-12-19T07:34:50.623Z,22.93
2018-12-19T07:37:19.131Z,20.02
2018-12-19T07:39:47.866Z,15.70
2018-12-19T07:42:16.180Z,15.72
2018-12-19T07:44:45.026Z,18.37
2018-12-19T07:47:13.328Z,18.15
2018-12-19T07:49:41.609Z,16.93
2018-12-19T07:52:09.899Z,17.42
2018-12-19T07:54:38.299Z,16.75
2018-12-19T07:57:06.629Z,22.07
2018-12-19T07:59:35.152Z,19.85
2018-12-19T08:02:03.484Z,17.95
2018-12-19T08:04:32.134Z,21.85
2018-12-19T08:07:00.469Z,17.70
2018-12-19T08:09:28.929Z,17.98
2018-12-19T08:11:57.711Z,18.82
2018-12-19T08:14:26.146Z,18.77
2018-12-19T08:16:54.439Z,25.20
2018-12-19T08:19:22.763Z,21.37
2018-12-19T08:21:51.075Z,19.27
2018-12-19T08:24:19.432Z,21.60
2018-12-19T08:26:47.744Z,18.45
2018-12-19T08:29:16.100Z,25.88
2018-12-19T08:31:44.460Z,27.90
2018-12-19T08:34:12.949Z,21.30
2018-12-19T08:36:41.873Z,20.20
2018-12-19T08:39:10.166Z,18.40
2018-12-19T08:41:40.067Z,21.65
2018-12-19T08:44:08.475Z,19.27
2018-12-19T08:46:36.817Z,24.02
2018-12-19T08:49:05.087Z,24.12
2018-12-19T08:51:33.508Z,24.82
2018-12-19T08:54:01.942Z,36.42
2018-12-19T08:56:30.319Z,21.05
2018-12-19T08:58:58.604Z,21.85
2018-12-19T09:01:27.035Z,19.12
2018-12-19T09:03:55.614Z,24.63
2018-12-19T09:06:24.063Z,19.73
2018-12-19T09:08:52.512Z,26.55
2018-12-19T09:11:20.972Z,21.93
2018-12-19T09:13:49.411Z,22.90
2018-12-19T09:16:17.849Z,26.07
2018-12-19T09:18:46.155Z,17.30
2018-12-19T09:21:14.542Z,27.07
2018-12-19T09:23:42.866Z,26.23
2018-12-19T09:26:11.312Z,19.65
2018-12-19T09:28:39.949Z,19.20
2018-12-19T09:31:08.400Z,22.42
2018-12-19T09:33:36.818Z,26.00
2018-12-19T09:36:05.712Z,22.15
2018-12-19T09:38:34.013Z,20.27
2018-12-19T09:41:02.552Z,23.12
2018-12-19T09:43:30.822Z,23.73
2018-12-19T09:45:59.195Z,25.35
2018-12-19T09:48:27.460Z,21.40
2018-12-19T09:50:55.853Z,21.62
2018-12-19T09:53:24.665Z,25.57
2018-12-19T09:55:53.091Z,20.02
2018-12-19T09:58:21.535Z,26.25
2018-12-19T10:00:49.896Z,23.80
2018-12-19T10:03:18.836Z,23.45
2018-12-19T10:05:47.202Z,24.15
2018-12-19T10:08:15.577Z,24.43
2018-12-19T10:10:43.928Z,21.27
2018-12-19T10:13:12.186Z,19.20
2018-12-19T10:15:40.414Z,20.88
2018-12-19T10:18:08.785Z,27.90
2018-12-19T10:20:37.125Z,29.40
2018-12-19T10:23:05.452Z,26.40
2018-12-19T10:25:34.471Z,27.98
2018-12-19T10:28:02.834Z,23.95
2018-12-19T10:30:33.221Z,23.05
2018-12-19T10:33:01.574Z,23.73
2018-12-19T10:35:30.072Z,24.32
2018-12-19T10:37:58.398Z,25.70
2018-12-19T10:40:26.844Z,26.17
2018-12-19T10:42:55.197Z,26.10
2018-12-19T10:45:23.498Z,34.38
2018-12-19T10:47:51.948Z,24.92
2018-12-19T10:50:20.244Z,24.55
2018-12-19T10:52:48.638Z,22.50
2018-12-19T10:55:17.026Z,26.55
2018-12-19T10:57:45.321Z,25.27
2018-12-19T11:00:19.092Z,22.42
2018-12-19T11:02:47.465Z,23.52
2018-12-19T11:05:15.919Z,27.30
2018-12-19T11:07:44.299Z,24.77
2018-12-19T11:10:12.681Z,27.58
2018-12-19T11:12:41.162Z,24.47
2018-12-19T11:15:11.086Z,20.80
2018-12-19T11:17:39.589Z,22.45
2018-12-19T11:20:09.853Z,20.50
2018-12-19T11:22:38.286Z,21.23
2018-12-19T11:25:06.951Z,23.50
2018-12-19T11:27:35.357Z,30.95
2018-12-19T11:30:04.254Z,23.87
2018-12-19T11:32:33.091Z,18.73
2018-12-19T11:35:01.399Z,21.25
2018-12-19T11:37:29.686Z,24.85
2018-12-19T11:39:58.281Z,24.70
2018-12-19T11:42:26.635Z,21.23
2018-12-19T11:44:55.108Z,25.17
2018-12-19T11:47:23.393Z,22.70
2018-12-19T11:49:51.677Z,24.35
2018-12-19T11:52:20.322Z,28.38
2018-12-19T11:54:48.606Z,33.53
2018-12-19T11:57:17.120Z,24.43
2018-12-19T11:59:45.492Z,28.10
2018-12-19T12:02:13.810Z,24.15
2018-12-19T12:04:42.088Z,28.02
2018-12-19T12:07:11.375Z,28.55
2018-12-19T12:09:40.613Z,24.80
2018-12-19T12:12:09.115Z,27.27
2018-12-19T12:14:37.504Z,21.82
2018-12-19T12:17:06.930Z,25.08
2018-12-19T12:19:35.280Z,27.85
2018-12-19T12:22:03.705Z,33.13
2018-12-19T12:24:32.169Z,39.65
2018-12-19T12:27:00.458Z,36.63
2018-12-19T12:29:28.739Z,36.93
2018-12-19T12:31:57.206Z,28.25
2018-12-19T12:34:25.741Z,25.43
2018-12-19T12:36:54.518Z,21.37
2018-12-19T12:39:22.889Z,27.70
2018-12-19T12:41:52.496Z,30.35
2018-12-19T12:44:21.357Z,29.85
2018-12-19T12:46:49.728Z,24.90
2018-12-19T12:49:18.195Z,26.87
2018-12-19T12:51:46.814Z,26.20
2018-12-19T12:54:15.353Z,25.57
2018-12-19T12:56:43.730Z,22.73
2018-12-19T12:59:12.084Z,23.95
2018-12-19T13:01:40.534Z,25.70
2018-12-19T13:04:08.833Z,21.77
2018-12-19T13:06:37.327Z,21.42
2018-12-19T13:09:07.989Z,23.45
2018-12-19T13:11:36.318Z,19.27
2018-12-19T13:14:04.990Z,24.05
2018-12-19T13:16:33.218Z,20.65
2018-12-19T13:19:01.831Z,23.02
2018-12-19T13:21:30.231Z,23.52
2018-12-19T13:23:58.572Z,20.50
2018-12-19T13:26:27.074Z,21.73
2018-12-19T13:28:55.630Z,21.12
2018-12-19T13:31:24.095Z,20.27
2018-12-19T13:33:52.362Z,20.52
2018-12-19T13:36:20.781Z,16.55
2018-12-19T13:38:49.162Z,17.10
2018-12-19T13:41:17.536Z,17.05
2018-12-19T13:43:45.897Z,20.48
2018-12-19T13:46:14.301Z,21.85
2018-12-19T13:48:42.695Z,22.25
2018-12-19T13:51:11.130Z,25.88
2018-12-19T13:53:39.418Z,23.50
2018-12-19T13:56:07.867Z,21.80
2018-12-19T13:58:37.202Z,23.77
2018-12-19T14:01:05.562Z,21.90
2018-12-19T14:03:33.971Z,22.17
2018-12-19T14:06:02.390Z,27.55
2018-12-19T14:08:30.721Z,20.45
2018-12-19T14:10:59.126Z,21.35
2018-12-19T14:13:28.031Z,23.02
2018-12-19T14:15:56.446Z,28.17
2018-12-19T14:18:24.894Z,25.17
2018-12-19T14:20:53.258Z,22.80
2018-12-19T14:23:21.741Z,20.52
2018-12-19T14:25:50.040Z,23.60
2018-12-19T14:28:25.058Z,25.30
2018-12-19T14:30:53.423Z,20.55
2018-12-19T14:33:21.888Z,23.92
2018-12-19T14:35:50.254Z,19.45
2018-12-19T14:38:18.721Z,32.00
2018-12-19T14:40:46.982Z,21.15
2018-12-19T14:43:15.281Z,20.60
2018-12-19T14:45:43.620Z,26.42
2018-12-19T14:48:12.334Z,24.25
2018-12-19T14:50:40.645Z,24.02
2018-12-19T14:53:08.978Z,21.87
2018-12-19T14:55:37.241Z,19.62
2018-12-19T14:58:05.754Z,24.50
2018-12-19T15:00:34.389Z,28.17
2018-12-19T15:03:02.722Z,21.37
2018-12-19T15:05:31.260Z,20.45
2018-12-19T15:07:59.582Z,21.40
2018-12-19T15:10:27.876Z,23.40
2018-12-19T15:12:56.381Z,24.30
2018-12-19T15:15:24.734Z,28.02
2018-12-19T15:17:53.123Z,24.30
2018-12-19T15:20:22.205Z,25.90
2018-12-19T15:22:50.740Z,27.73
2018-12-19T15:25:19.127Z,31.93
2018-12-19T15:27:47.531Z,34.15
2018-12-19T15:30:15.918Z,22.70
2018-12-19T15:32:44.400Z,35.28
2018-12-19T15:35:12.763Z,28.12
2018-12-19T15:37:41.371Z,22.07
2018-12-19T15:40:10.015Z,23.87
2018-12-19T15:42:38.554Z,19.57
2018-12-19T15:45:07.059Z,23.77
2018-12-19T15:47:35.889Z,24.20
2018-12-19T15:50:05.435Z,24.70
2018-12-19T15:52:33.756Z,22.58
2018-12-19T15:55:02.358Z,30.12
2018-12-19T15:57:30.862Z,21.95
2018-12-19T15:59:59.194Z,19.40
2018-12-19T16:02:27.716Z,19.70
2018-12-19T16:04:56.002Z,33.20
2018-12-19T16:07:24.315Z,21.12
2018-12-19T16:09:52.676Z,19.50
2018-12-19T16:12:21.233Z,26.50
2018-12-19T16:14:50.253Z,21.70
2018-12-19T16:17:18.571Z,25.45
2018-12-19T16:19:46.986Z,24.07
2018-12-19T16:22:15.346Z,19.75
2018-12-19T16:24:43.760Z,19.32
2018-12-19T16:27:12.320Z,19.10
2018-12-19T16:29:40.680Z,19.92
2018-12-19T16:32:09.042Z,20.90
2018-12-19T16:34:38.390Z,20.75
2018-12-19T16:37:07.781Z,21.55
2018-12-19T16:39:36.410Z,27.13
2018-12-19T16:42:05.628Z,23.75
2018-12-19T16:44:34.338Z,35.08
2018-12-19T16:47:02.716Z,29.32
2018-12-19T16:49:31.653Z,28.85
2018-12-19T16:52:00.088Z,27.90
2018-12-19T16:54:28.350Z,37.65
2018-12-19T16:56:57.351Z,32.93
2018-12-19T16:59:26.170Z,35.60
2018-12-19T17:01:54.809Z,27.58
2018-12-19T17:04:23.092Z,29.45
2018-12-19T17:06:51.390Z,29.30
2018-12-19T17:09:19.777Z,34.10
2018-12-19T17:11:48.107Z,29.52
2018-12-19T17:14:16.558Z,28.95
2018-12-19T17:16:44.833Z,29.92
2018-12-19T17:19:13.272Z,32.23
2018-12-19T17:21:41.651Z,26.07
2018-12-19T17:24:10.038Z,24.95
2018-12-19T17:26:38.603Z,29.72
2018-12-19T17:29:07.869Z,22.10
2018-12-19T17:31:36.224Z,20.80
2018-12-19T17:34:04.494Z,27.45
2018-12-19T17:36:33.191Z,25.48
2018-12-19T17:39:01.485Z,29.52
2018-12-19T17:41:29.818Z,26.52
2018-12-19T17:43:58.085Z,27.62
2018-12-19T17:46:27.142Z,25.77
2018-12-19T17:48:55.580Z,27.77
2018-12-19T17:51:23.918Z,30.68
2018-12-19T17:53:52.201Z,27.15
2018-12-19T17:56:20.579Z,28.77
2018-12-19T17:58:48.912Z,28.85
2018-12-19T18:01:17.440Z,27.37
2018-12-19T18:03:45.830Z,31.20
2018-12-19T18:06:14.121Z,29.85
2018-12-19T18:08:42.457Z,33.38
2018-12-19T18:11:10.746Z,31.10
2018-12-19T18:13:39.576Z,23.38
2018-12-19T18:16:07.926Z,26.40
2018-12-19T18:18:36.241Z,29.40
2018-12-19T18:21:04.682Z,27.02
2018-12-19T18:23:33.101Z,29.90
2018-12-19T18:26:01.788Z,36.63
2018-12-19T18:28:30.186Z,30.12
2018-12-19T18:30:58.563Z,33.23
2018-12-19T18:33:26.880Z,32.83
2018-12-19T18:35:55.353Z,24.43
2018-12-19T18:38:23.713Z,29.52
2018-12-19T18:40:52.043Z,30.55
2018-12-19T18:43:20.294Z,25.90
2018-12-19T18:45:48.815Z,22.32
2018-12-19T18:48:17.113Z,22.22
2018-12-19T18:50:45.415Z,22.50
2018-12-19T18:53:13.690Z,15.68
2018-12-19T18:55:42.051Z,19.42
2018-12-19T18:58:10.384Z,17.32
2018-12-19T19:00:39.087Z,15.55
2018-12-19T19:03:07.528Z,16.67
2018-12-19T19:05:35.929Z,16.10
2018-12-19T19:08:04.460Z,19.42
2018-12-19T19:10:32.812Z,18.07
2018-12-19T19:13:01.182Z,16.07
2018-12-19T19:15:29.548Z,18.98
2018-12-19T19:17:57.829Z,19.32
2018-12-19T19:20:26.104Z,17.40
2018-12-19T19:22:54.470Z,19.12
2018-12-19T19:25:22.981Z,18.70
2018-12-19T19:27:51.328Z,26.97
2018-12-19T19:30:19.659Z,16.77
2018-12-19T19:32:48.123Z,18.02
2018-12-19T19:35:16.615Z,16.82
2018-12-19T19:37:44.950Z,21.57
2018-12-19T19:40:13.402Z,17.45
2018-12-19T19:42:41.740Z,19.45
2018-12-19T19:45:10.099Z,15.48
2018-12-19T19:47:38.590Z,17.15
2018-12-19T19:50:07.154Z,15.23
2018-12-19T19:52:35.459Z,14.18
2018-12-19T19:55:03.985Z,14.55
2018-12-19T19:57:32.248Z,9.45
2018-12-19T20:00:00.572Z,16.02
2018-12-19T20:03:32.605Z,11.00
2018-12-19T20:06:00.885Z,13.53
2018-12-19T20:08:29.190Z,11.48
2018-12-19T20:10:57.521Z,12.65
2018-12-19T20:13:25.794Z,10.08
2018-12-19T20:15:54.183Z,11.08
2018-12-19T20:18:22.500Z,10.48
2018-12-19T20:20:50.790Z,10.65
2018-12-19T20:23:19.169Z,14.10
2018-12-19T20:25:47.649Z,8.45
2018-12-19T20:28:16.131Z,14.07
2018-12-19T20:30:44.495Z,13.65
2018-12-19T20:33:12.829Z,10.82
2018-12-19T20:35:41.246Z,15.10
2018-12-19T20:38:09.727Z,8.35
2018-12-19T20:40:37.997Z,6.75
2018-12-19T20:43:06.970Z,7.45
2018-12-19T20:45:35.464Z,10.28
2018-12-19T20:48:03.783Z,10.25
2018-12-19T20:50:32.460Z,6.03
2018-12-19T20:53:00.722Z,9.33
2018-12-19T20:55:28.951Z,8.70
2018-12-19T20:57:57.204Z,7.37
2018-12-19T21:00:25.912Z,9.10
2018-12-19T21:02:54.214Z,6.00
2018-12-19T21:05:22.780Z,6.72
2018-12-19T21:07:51.160Z,7.05
2018-12-19T21:10:19.683Z,6.75
2018-12-19T21:12:50.484Z,6.87
2018-12-19T21:15:21.278Z,9.55
2018-12-19T21:17:55.603Z,5.58
2018-12-19T21:20:23.985Z,6.90
2018-12-19T21:22:52.768Z,9.98
2018-12-19T21:25:21.230Z,5.30
2018-12-19T21:27:50.117Z,4.40
2018-12-19T21:30:19.282Z,4.78
2018-12-19T21:32:47.631Z,3.40
2018-12-19T21:35:16.053Z,3.87
2018-12-19T21:37:44.896Z,8.48
2018-12-19T21:40:13.515Z,6.92
2018-12-19T21:42:43.330Z,3.37
2018-12-19T21:45:13.376Z,8.85
2018-12-19T21:47:43.639Z,3.40
2018-12-19T21:50:12.630Z,3.08
2018-12-19T21:52:41.774Z,3.65
2018-12-19T21:55:10.546Z,7.03
2018-12-19T21:57:38.891Z,3.47
2018-12-19T22:00:13.234Z,3.08
2018-12-19T22:02:41.585Z,3.95
2018-12-19T22:05:10.235Z,3.87
2018-12-19T22:07:39.566Z,5.00
2018-12-19T22:10:07.931Z,4.92
2018-12-19T22:12:36.278Z,5.92
2018-12-19T22:15:05.177Z,5.95
2018-12-19T22:17:38.851Z,5.10
2018-12-19T22:20:07.401Z,3.98
2018-12-19T22:22:35.682Z,6.35
2018-12-19T22:25:04.261Z,3.60
2018-12-19T22:27:32.725Z,2.52
2018-12-19T22:30:01.271Z,3.50
2018-12-19T22:32:30.067Z,5.25
2018-12-19T22:34:58.496Z,9.13
2018-12-19T22:37:26.843Z,4.28
2018-12-19T22:39:55.454Z,4.42
2018-12-19T22:42:23.994Z,6.42
2018-12-19T22:44:52.529Z,4.25
2018-12-19T22:47:21.747Z,4.78
2018-12-19T22:49:50.300Z,7.80
2018-12-19T22:52:18.974Z,4.65
2018-12-19T22:54:47.646Z,5.35
2018-12-19T22:57:16.633Z,4.05
2018-12-19T22:59:45.311Z,5.35
2018-12-19T23:02:19.069Z,6.62
2018-12-19T23:04:47.687Z,4.45
2018-12-19T23:07:16.037Z,7.58
2018-12-19T23:09:44.421Z,5.35
2018-12-19T23:12:19.396Z,6.00
2018-12-19T23:14:47.817Z,6.00
2018-12-19T23:17:21.768Z,5.55
2018-12-19T23:19:50.324Z,5.20
2018-12-19T23:22:18.785Z,7.42
2018-12-19T23:24:47.567Z,3.83
2018-12-19T23:27:16.036Z,4.90
2018-12-19T23:29:45.011Z,4.67
2018-12-19T23:32:15.883Z,4.70
2018-12-19T23:34:44.320Z,4.42
2018-12-19T23:37:12.721Z,3.85
2018-12-19T23:39:41.398Z,4.28
2018-12-19T23:42:11.924Z,3.98
2018-12-19T23:44:40.534Z,4.75
2018-12-19T23:47:09.944Z,3.75
2018-12-19T23:49:38.302Z,4.90
2018-12-19T23:52:06.665Z,8.20
2018-12-19T23:54:34.992Z,2.85
2018-12-19T23:57:03.459Z,4.95
2018-12-19T23:59:32.871Z,3.65
